Time;durP1;ratioP1;P1;durP2;ratioP2;P2;SDS_P1;SDS_P2;PMS_P1;PMS_P2;Temp;Humidity;BMP_temperature;BMP_pressure;BME280_temperature;BME280_humidity;BME280_pressure;Samples;Min_cycle;Max_cycle;Signal;HPM_P1;HPM_P2
2021/08/26 00:00:24;;;;;;;5.50;1.30;;;;;;;;;;5091937;28;20035;-61
2021/08/26 00:05:51;;;;;;;5.13;0.90;;;;;;;;;;5102884;28;20082;-60
2021/08/26 00:08:19;;;;;;;7.93;1.40;;;;;;;;;;5107512;28;20030;-61
2021/08/26 00:10:46;;;;;;;6.53;1.33;;;;;;;;;;5109062;28;20027;-61
2021/08/26 00:13:14;;;;;;;6.07;1.40;;;;;;;;;;5112592;28;20031;-61
2021/08/26 00:15:47;;;;;;;7.53;2.20;;;;;;;;;;5096726;28;20024;-61
2021/08/26 00:18:15;;;;;;;6.77;1.07;;;;;;;;;;5092688;28;20141;-61
2021/08/26 00:20:44;;;;;;;6.63;1.27;;;;;;;;;;5095148;28;20038;-61
2021/08/26 00:23:11;;;;;;;10.30;2.53;;;;;;;;;;5109916;28;20115;-61
2021/08/26 00:25:37;;;;;;;4.73;1.30;;;;;;;;;;5092728;28;20097;-61
2021/08/26 00:28:04;;;;;;;6.03;1.70;;;;;;;;;;5087650;28;20104;-61
2021/08/26 00:30:31;;;;;;;6.17;1.20;;;;;;;;;;5087622;28;20036;-61
2021/08/26 00:32:58;;;;;;;4.77;1.37;;;;;;;;;;5087819;28;20028;-61
2021/08/26 00:35:25;;;;;;;4.73;1.40;;;;;;;;;;5104194;28;20030;-61
2021/08/26 00:37:51;;;;;;;5.13;1.50;;;;;;;;;;5112683;28;20084;-61
2021/08/26 00:40:18;;;;;;;6.23;1.20;;;;;;;;;;5112511;28;20027;-61
2021/08/26 00:42:45;;;;;;;5.17;1.27;;;;;;;;;;5103920;28;20153;-61
2021/08/26 00:45:12;;;;;;;3.17;1.00;;;;;;;;;;5091106;28;20051;-61
2021/08/26 00:47:39;;;;;;;11.27;4.27;;;;;;;;;;5098447;28;20031;-61
2021/08/26 00:50:06;;;;;;;9.10;3.37;;;;;;;;;;5107305;28;20030;-61
2021/08/26 00:52:37;;;;;;;10.30;3.70;;;;;;;;;;5101894;28;20027;-61
2021/08/26 00:55:04;;;;;;;12.60;4.23;;;;;;;;;;5107334;28;20533;-61
2021/08/26 00:57:31;;;;;;;6.27;1.63;;;;;;;;;;5105815;28;20420;-61
2021/08/26 00:59:58;;;;;;;8.90;2.17;;;;;;;;;;5092198;28;20100;-61
2021/08/26 01:02:28;;;;;;;5.33;2.03;;;;;;;;;;5100267;28;20027;-61
2021/08/26 01:05:03;;;;;;;6.87;1.97;;;;;;;;;;5112327;28;20027;-61
2021/08/26 01:07:29;;;;;;;;;;;;;;;;;;5099415;28;20108;-61
2021/08/26 01:09:59;;;;;;;7.10;2.17;;;;;;;;;;5106815;28;19912;-61
2021/08/26 01:12:28;;;;;;;3.50;1.27;;;;;;;;;;5106723;28;20042;-61
2021/08/26 01:14:56;;;;;;;7.13;1.17;;;;;;;;;;5107298;28;20116;-61
2021/08/26 01:17:26;;;;;;;4.23;1.00;;;;;;;;;;5102617;28;20022;-61
2021/08/26 01:19:53;;;;;;;2.70;1.00;;;;;;;;;;5091621;28;20031;-61
2021/08/26 01:22:21;;;;;;;3.33;0.60;;;;;;;;;;5099819;28;20082;-61
2021/08/26 01:24:50;;;;;;;7.63;1.00;;;;;;;;;;5115279;28;20035;-61
2021/08/26 01:27:18;;;;;;;6.47;1.57;;;;;;;;;;5113039;28;20043;-61
2021/08/26 01:29:45;;;;;;;4.43;0.80;;;;;;;;;;5095548;28;20382;-61
2021/08/26 01:32:12;;;;;;;8.43;1.70;;;;;;;;;;5090567;28;20020;-61
2021/08/26 01:34:39;;;;;;;4.90;1.63;;;;;;;;;;5090792;28;20035;-61
2021/08/26 01:37:06;;;;;;;4.83;1.40;;;;;;;;;;5091063;28;20038;-61
2021/08/26 01:39:32;;;;;;;4.50;1.57;;;;;;;;;;5111114;28;20140;-61
2021/08/26 01:41:59;;;;;;;6.40;1.60;;;;;;;;;;5115559;28;20401;-61
2021/08/26 01:44:27;;;;;;;6.97;1.47;;;;;;;;;;5115606;28;20055;-61
2021/08/26 01:46:57;;;;;;;5.47;1.40;;;;;;;;;;5098561;28;20028;-61
2021/08/26 01:49:27;;;;;;;6.00;1.90;;;;;;;;;;5115491;28;20023;-61
2021/08/26 01:51:54;;;;;;;3.70;1.80;;;;;;;;;;5110849;28;20417;-61
2021/08/26 01:54:21;;;;;;;7.33;2.20;;;;;;;;;;5090127;28;20020;-61
2021/08/26 01:56:47;;;;;;;5.67;2.40;;;;;;;;;;5090330;28;20036;-61
2021/08/26 01:59:14;;;;;;;7.37;3.27;;;;;;;;;;5108434;28;20028;-61
2021/08/26 02:01:41;;;;;;;5.67;2.00;;;;;;;;;;5110461;28;20066;-61
2021/08/26 02:04:08;;;;;;;8.90;1.93;;;;;;;;;;5103577;28;20044;-61
2021/08/26 02:06:35;;;;;;;8.87;1.80;;;;;;;;;;5096079;28;20054;-61
2021/08/26 02:09:01;;;;;;;5.23;1.30;;;;;;;;;;5110953;28;20496;-61
2021/08/26 02:11:28;;;;;;;8.43;1.73;;;;;;;;;;5115529;28;20034;-61
2021/08/26 02:13:55;;;;;;;5.77;2.13;;;;;;;;;;5116411;28;20023;-61
2021/08/26 02:16:22;;;;;;;7.80;1.67;;;;;;;;;;5110924;28;20027;-63
2021/08/26 02:18:48;;;;;;;8.70;2.13;;;;;;;;;;5094218;28;20081;-61
2021/08/26 02:21:15;;;;;;;5.43;2.80;;;;;;;;;;5089467;28;20031;-61
2021/08/26 02:23:42;;;;;;;13.60;5.13;;;;;;;;;;5103610;28;20063;-61
2021/08/26 02:26:09;;;;;;;8.87;2.60;;;;;;;;;;5113422;28;20016;-61
2021/08/26 02:28:36;;;;;;;7.07;1.60;;;;;;;;;;5101876;28;20032;-61
2021/08/26 10:50:11;;;;;;;5.13;2.57;;;;;;;;;;5029673;28;20245;-64
2021/08/26 10:52:57;;;;;;;6.73;1.93;;;;;;;;;;5051767;28;20035;-63
2021/08/26 10:55:47;;;;;;;9.20;2.70;;;;;;;;;;5050833;28;20029;-63
2021/08/26 10:58:23;;;;;;;4.20;1.90;;;;;;;;;;5040430;28;20033;-63
2021/08/26 11:01:00;;;;;;;5.70;2.50;;;;;;;;;;5048441;28;20383;-63
2021/08/26 11:03:33;;;;;;;5.70;2.10;;;;;;;;;;5028777;28;20051;-63
2021/08/26 11:06:22;;;;;;;5.87;2.73;;;;;;;;;;5031357;28;20056;-64
2021/08/26 11:08:56;;;;;;;6.73;2.07;;;;;;;;;;5054023;28;20021;-63
2021/08/26 11:11:29;;;;;;;6.83;2.80;;;;;;;;;;5051931;28;20024;-63
2021/08/26 11:14:05;;;;;;;3.80;1.63;;;;;;;;;;5053755;28;20074;-63
2021/08/26 11:16:38;;;;;;;3.73;2.23;;;;;;;;;;5053422;28;20064;-63
2021/08/26 11:19:17;;;;;;;4.23;2.27;;;;;;;;;;5048664;28;20199;-63
2021/08/26 11:21:44;;;;;;;6.53;1.77;;;;;;;;;;5042577;28;20025;-63
2021/08/26 11:24:30;;;;;;;7.73;1.93;;;;;;;;;;5044254;28;20041;-63
2021/08/26 11:26:58;;;;;;;3.43;1.90;;;;;;;;;;5047586;28;20025;-63
2021/08/26 11:29:25;;;;;;;4.60;1.83;;;;;;;;;;5053525;28;20025;-63
2021/08/26 11:32:25;;;;;;;3.70;2.17;;;;;;;;;;5051383;28;20033;-63
2021/08/26 11:34:54;;;;;;;3.83;1.73;;;;;;;;;;5032438;28;20040;-63
2021/08/26 11:37:32;;;;;;;5.70;1.97;;;;;;;;;;5041200;28;20021;-64
2021/08/26 11:40:03;;;;;;;7.53;1.90;;;;;;;;;;5036033;28;20083;-63
2021/08/26 11:42:32;;;;;;;5.53;1.60;;;;;;;;;;5027783;28;20029;-63
2021/08/26 11:45:19;;;;;;;4.37;1.67;;;;;;;;;;5028957;28;20037;-63
2021/08/26 11:47:59;;;;;;;6.27;2.43;;;;;;;;;;5035322;28;20400;-64
2021/08/26 11:50:33;;;;;;;7.73;2.70;;;;;;;;;;5030253;28;20053;-64
2021/08/26 11:53:04;;;;;;;5.83;2.40;;;;;;;;;;5032792;28;20108;-64
2021/08/26 11:55:35;;;;;;;5.47;2.00;;;;;;;;;;5038636;28;20028;-64
2021/08/26 11:58:03;;;;;;;3.53;1.93;;;;;;;;;;5032612;28;20080;-63
2021/08/26 12:00:30;;;;;;;5.33;1.87;;;;;;;;;;5033183;28;20484;-64
2021/08/26 12:02:57;;;;;;;7.97;2.13;;;;;;;;;;5029481;28;20033;-64
2021/08/26 12:05:26;;;;;;;3.23;1.90;;;;;;;;;;5031003;28;20039;-64
2021/08/26 12:07:53;;;;;;;5.07;1.80;;;;;;;;;;5044488;28;20363;-64
2021/08/26 12:10:25;;;;;;;4.93;2.50;;;;;;;;;;5039574;28;20111;-64
2021/08/26 12:13:02;;;;;;;5.87;2.13;;;;;;;;;;5029865;28;20029;-63
2021/08/26 12:15:32;;;;;;;5.37;2.87;;;;;;;;;;5037292;28;20021;-63
2021/08/26 12:18:01;;;;;;;4.47;2.40;;;;;;;;;;5032603;28;20033;-64
2021/08/26 12:20:29;;;;;;;6.00;2.60;;;;;;;;;;5032699;28;20101;-64
2021/08/26 12:22:56;;;;;;;5.03;1.90;;;;;;;;;;5045324;28;20033;-64
2021/08/26 12:25:26;;;;;;;5.47;2.17;;;;;;;;;;5041658;28;20041;-64
2021/08/26 12:27:54;;;;;;;6.10;3.50;;;;;;;;;;5027062;28;20450;-64
2021/08/26 12:30:33;;;;;;;10.33;3.33;;;;;;;;;;5026639;28;20499;-64
2021/08/26 12:33:20;;;;;;;5.53;2.67;;;;;;;;;;5039344;28;20029;-64
2021/08/26 12:35:48;;;;;;;5.30;2.53;;;;;;;;;;5048023;28;20037;-63
2021/08/26 12:38:17;;;;;;;7.37;2.40;;;;;;;;;;5037160;28;20060;-64
2021/08/26 12:40:54;;;;;;;5.77;1.83;;;;;;;;;;5051050;28;20491;-63
2021/08/26 12:43:25;;;;;;;4.77;2.30;;;;;;;;;;5047461;28;20502;-63
2021/08/26 12:46:04;;;;;;;11.10;3.47;;;;;;;;;;5051364;28;20043;-63
2021/08/26 12:48:38;;;;;;;7.70;2.60;;;;;;;;;;5046587;28;20029;-63
2021/08/26 12:51:12;;;;;;;5.43;2.50;;;;;;;;;;5046404;28;20483;-63
2021/08/26 12:53:40;;;;;;;6.60;3.23;;;;;;;;;;5028401;28;20120;-63
2021/08/26 12:56:15;;;;;;;4.03;2.27;;;;;;;;;;5026307;28;20472;-63
2021/08/26 12:58:53;;;;;;;3.73;2.00;;;;;;;;;;5052154;28;20044;-64
2021/08/26 13:01:23;;;;;;;9.43;3.93;;;;;;;;;;5051668;28;20029;-64
2021/08/26 13:03:53;;;;;;;8.57;3.13;;;;;;;;;;5032704;28;21266;-63
2021/08/26 13:06:36;;;;;;;6.77;3.27;;;;;;;;;;5031640;28;20476;-64
2021/08/26 13:09:10;;;;;;;8.53;3.00;;;;;;;;;;5010808;28;20028;-64
2021/08/26 13:11:48;;;;;;;7.33;2.70;;;;;;;;;;5010633;28;20066;-64
2021/08/26 13:14:15;;;;;;;5.70;2.70;;;;;;;;;;5026103;28;20045;-63
2021/08/26 13:16:42;;;;;;;5.53;2.20;;;;;;;;;;5026263;28;20040;-64
2021/08/26 13:19:09;;;;;;;5.03;2.07;;;;;;;;;;5029854;28;20022;-63
2021/08/26 13:21:36;;;;;;;6.90;2.57;;;;;;;;;;5035653;28;20026;-64
2021/08/26 13:24:02;;;;;;;5.30;1.80;;;;;;;;;;5055627;28;20029;-63
2021/08/26 13:26:29;;;;;;;4.23;2.00;;;;;;;;;;5055494;28;20386;-63
2021/08/26 13:28:56;;;;;;;4.90;2.37;;;;;;;;;;5055342;28;20021;-64
2021/08/26 13:31:23;;;;;;;5.80;2.10;;;;;;;;;;5053572;28;20390;-64
2021/08/26 13:33:51;;;;;;;10.93;2.70;;;;;;;;;;5031679;28;20091;-63
2021/08/26 13:36:18;;;;;;;5.03;2.17;;;;;;;;;;5030405;28;20108;-65
2021/08/26 13:38:45;;;;;;;4.00;2.17;;;;;;;;;;5049419;28;20115;-64
2021/08/26 13:41:12;;;;;;;9.53;2.67;;;;;;;;;;5051015;28;20021;-63
2021/08/26 13:43:39;;;;;;;5.70;2.10;;;;;;;;;;5039584;28;21345;-63
2021/08/26 13:46:05;;;;;;;5.07;2.53;;;;;;;;;;5052637;28;20498;-63
2021/08/26 13:48:32;;;;;;;4.43;1.70;;;;;;;;;;5054836;28;20017;-63
2021/08/26 13:50:59;;;;;;;4.80;1.93;;;;;;;;;;5055192;28;20381;-64
2021/08/26 13:53:26;;;;;;;7.13;3.00;;;;;;;;;;5039306;28;20041;-64
2021/08/26 13:55:52;;;;;;;6.57;3.43;;;;;;;;;;5029605;28;20100;-64
2021/08/26 13:58:19;;;;;;;7.13;3.10;;;;;;;;;;5029708;28;20025;-63
2021/08/26 14:00:46;;;;;;;11.60;3.17;;;;;;;;;;5030279;28;20026;-64
2021/08/26 14:03:13;;;;;;;7.57;3.57;;;;;;;;;;5049674;28;20025;-63
2021/08/26 14:05:40;;;;;;;5.53;2.93;;;;;;;;;;5054858;28;20029;-63
2021/08/26 14:08:07;;;;;;;9.37;3.17;;;;;;;;;;5040255;28;20022;-63
2021/08/26 14:10:34;;;;;;;7.93;3.20;;;;;;;;;;5034929;28;20021;-65
2021/08/26 14:13:03;;;;;;;5.43;2.73;;;;;;;;;;5052784;28;20021;-63
2021/08/26 14:15:30;;;;;;;4.73;2.30;;;;;;;;;;5052286;28;20039;-63
2021/08/26 14:17:57;;;;;;;7.07;2.70;;;;;;;;;;5047839;28;20055;-63
2021/08/26 14:20:24;;;;;;;8.97;2.93;;;;;;;;;;5049070;28;20028;-63
2021/08/26 14:22:51;;;;;;;6.20;2.90;;;;;;;;;;5048962;28;20122;-65
2021/08/26 14:25:17;;;;;;;7.37;2.73;;;;;;;;;;5049297;28;20033;-64
2021/08/26 14:27:44;;;;;;;8.23;3.40;;;;;;;;;;5037967;28;20029;-64
2021/08/26 14:30:11;;;;;;;6.07;3.20;;;;;;;;;;5033453;28;20060;-64
2021/08/26 14:32:38;;;;;;;9.13;3.70;;;;;;;;;;5034438;28;20036;-64
2021/08/26 14:35:06;;;;;;;8.00;4.07;;;;;;;;;;5034336;28;20025;-64
2021/08/26 14:37:33;;;;;;;14.10;5.03;;;;;;;;;;5048741;28;20044;-64
2021/08/26 14:40:00;;;;;;;12.97;4.10;;;;;;;;;;5048510;28;20033;-64
2021/08/26 14:42:27;;;;;;;10.47;4.93;;;;;;;;;;5048995;28;20048;-64
2021/08/26 14:44:53;;;;;;;11.53;5.30;;;;;;;;;;5048810;28;20310;-64
2021/08/26 14:47:20;;;;;;;6.90;3.70;;;;;;;;;;5042779;28;20094;-64
2021/08/26 14:49:47;;;;;;;12.70;4.03;;;;;;;;;;5038955;28;20022;-64
2021/08/26 14:52:14;;;;;;;8.97;4.17;;;;;;;;;;5033618;28;20458;-64
2021/08/26 14:54:40;;;;;;;6.97;3.53;;;;;;;;;;5034345;28;20039;-64
2021/08/26 14:57:07;;;;;;;12.80;4.10;;;;;;;;;;5044010;28;20017;-64
2021/08/26 14:59:34;;;;;;;7.33;3.30;;;;;;;;;;5054146;28;20029;-64
2021/08/26 15:02:01;;;;;;;10.43;2.97;;;;;;;;;;5048584;28;20029;-64
2021/08/26 15:04:28;;;;;;;10.53;4.50;;;;;;;;;;5045909;28;20067;-64
2021/08/26 15:06:55;;;;;;;4.43;2.40;;;;;;;;;;5039403;28;20064;-64
2021/08/26 15:09:21;;;;;;;7.97;3.50;;;;;;;;;;5010237;28;20067;-64
2021/08/26 15:11:49;;;;;;;8.33;3.30;;;;;;;;;;5032827;28;20018;-64
2021/08/26 15:14:16;;;;;;;10.53;3.23;;;;;;;;;;5040782;28;20047;-64
2021/08/26 15:16:43;;;;;;;8.43;2.60;;;;;;;;;;5050418;28;20030;-64
2021/08/26 15:19:09;;;;;;;8.73;3.23;;;;;;;;;;5040991;28;20498;-64
2021/08/26 15:21:36;;;;;;;5.17;2.70;;;;;;;;;;5053081;28;20024;-64
2021/08/26 15:24:07;;;;;;;11.20;3.43;;;;;;;;;;5044138;28;20049;-64
2021/08/26 15:26:34;;;;;;;8.80;3.23;;;;;;;;;;5028158;28;20093;-64
2021/08/26 15:29:01;;;;;;;9.40;2.73;;;;;;;;;;5028254;28;20057;-64
2021/08/26 15:31:27;;;;;;;10.47;3.53;;;;;;;;;;5028035;28;20111;-64
2021/08/26 15:33:54;;;;;;;9.53;3.10;;;;;;;;;;5034353;28;20504;-64
2021/08/26 15:36:23;;;;;;;6.80;2.80;;;;;;;;;;5053084;28;20029;-63
2021/08/26 15:38:51;;;;;;;7.37;2.83;;;;;;;;;;5052989;28;20048;-64
2021/08/26 15:41:18;;;;;;;9.67;3.17;;;;;;;;;;5052774;28;20032;-65
2021/08/26 15:43:45;;;;;;;9.13;2.93;;;;;;;;;;5029359;28;20037;-63
2021/08/26 15:46:13;;;;;;;9.83;3.30;;;;;;;;;;5049059;28;20047;-64
2021/08/26 15:48:40;;;;;;;8.87;2.87;;;;;;;;;;5047459;28;20021;-64
2021/08/26 15:51:07;;;;;;;13.77;3.77;;;;;;;;;;5034323;28;20021;-64
2021/08/26 15:53:44;;;;;;;9.30;3.23;;;;;;;;;;5040318;28;20029;-64
2021/08/26 15:56:12;;;;;;;6.33;3.23;;;;;;;;;;5050722;28;20025;-64
2021/08/26 15:58:47;;;;;;;9.00;3.30;;;;;;;;;;5052997;28;20135;-64
2021/08/26 16:01:22;;;;;;;6.40;3.67;;;;;;;;;;5053066;28;20032;-64
2021/08/26 16:03:52;;;;;;;12.23;3.53;;;;;;;;;;5040972;28;20026;-64
2021/08/26 16:06:19;;;;;;;9.97;3.37;;;;;;;;;;5032494;28;20033;-63
2021/08/26 16:08:48;;;;;;;13.43;3.87;;;;;;;;;;5027897;28;20113;-64
2021/08/26 16:11:15;;;;;;;17.33;4.07;;;;;;;;;;5027303;28;20524;-64
2021/08/26 16:13:42;;;;;;;10.67;3.43;;;;;;;;;;5037278;28;20027;-64
2021/08/26 16:16:12;;;;;;;9.63;3.17;;;;;;;;;;5047135;28;20045;-64
2021/08/26 16:18:40;;;;;;;12.67;3.47;;;;;;;;;;5051036;28;20029;-64
2021/08/26 16:21:07;;;;;;;11.17;3.43;;;;;;;;;;5052190;28;20435;-63
2021/08/26 16:23:34;;;;;;;11.10;3.10;;;;;;;;;;5042530;28;20023;-64
2021/08/26 16:26:01;;;;;;;9.80;3.80;;;;;;;;;;5052538;28;20029;-64
2021/08/26 16:28:27;;;;;;;8.23;3.47;;;;;;;;;;5051510;28;20112;-64
2021/08/26 16:30:54;;;;;;;12.90;3.33;;;;;;;;;;5047199;28;20025;-64
2021/08/26 16:33:21;;;;;;;15.60;5.43;;;;;;;;;;5039639;28;20060;-64
2021/08/26 16:35:48;;;;;;;11.90;3.27;;;;;;;;;;5026511;28;20491;-64
2021/08/26 16:38:14;;;;;;;14.07;3.43;;;;;;;;;;5026957;28;20026;-64
2021/08/26 16:40:42;;;;;;;19.33;3.80;;;;;;;;;;5030318;28;20034;-64
2021/08/26 16:43:08;;;;;;;21.87;4.10;;;;;;;;;;5036928;28;20048;-64
2021/08/26 16:45:35;;;;;;;11.13;3.17;;;;;;;;;;5051978;28;20048;-63
2021/08/26 16:48:02;;;;;;;12.33;4.23;;;;;;;;;;5052318;28;20017;-64
2021/08/26 16:50:29;;;;;;;15.37;4.30;;;;;;;;;;5039225;28;20450;-64
2021/08/26 16:52:56;;;;;;;10.43;3.77;;;;;;;;;;5027326;28;20029;-64
2021/08/26 16:55:23;;;;;;;11.00;3.60;;;;;;;;;;5043471;28;20052;-64
2021/08/26 16:57:50;;;;;;;15.90;3.93;;;;;;;;;;5046489;28;20437;-64
2021/08/26 17:00:17;;;;;;;7.80;3.83;;;;;;;;;;5036472;28;20706;-64
2021/08/26 17:02:44;;;;;;;8.77;3.87;;;;;;;;;;5029146;28;20029;-64
2021/08/26 17:05:11;;;;;;;11.13;4.03;;;;;;;;;;5032002;28;20163;-64
2021/08/26 17:07:37;;;;;;;10.43;4.00;;;;;;;;;;5041723;28;20025;-64
2021/08/26 17:10:05;;;;;;;12.47;3.93;;;;;;;;;;5042612;28;20390;-64
2021/08/26 17:12:32;;;;;;;14.90;5.17;;;;;;;;;;5051981;28;20025;-65
2021/08/26 17:15:00;;;;;;;10.53;3.90;;;;;;;;;;5048690;28;20021;-64
2021/08/26 17:17:27;;;;;;;13.57;4.43;;;;;;;;;;5046156;28;20129;-64
2021/08/26 17:19:54;;;;;;;10.13;4.17;;;;;;;;;;5031043;28;20040;-64
2021/08/26 17:22:21;;;;;;;9.93;3.93;;;;;;;;;;5026261;28;20156;-64
2021/08/26 17:24:48;;;;;;;14.13;3.80;;;;;;;;;;5028415;28;20116;-64
2021/08/26 17:27:15;;;;;;;9.77;3.40;;;;;;;;;;5050154;28;20484;-64
2021/08/26 17:29:41;;;;;;;9.50;3.67;;;;;;;;;;5038624;28;20083;-64
2021/08/26 17:32:09;;;;;;;15.80;3.90;;;;;;;;;;5031704;28;20056;-64
2021/08/26 17:34:36;;;;;;;11.20;3.33;;;;;;;;;;5031842;28;20083;-64
2021/08/26 17:37:04;;;;;;;12.57;3.90;;;;;;;;;;5028676;28;20105;-64
2021/08/26 17:39:30;;;;;;;9.10;3.20;;;;;;;;;;5036697;28;20044;-64
2021/08/26 17:41:57;;;;;;;13.90;3.60;;;;;;;;;;5037575;28;20022;-64
2021/08/26 17:44:24;;;;;;;8.00;3.27;;;;;;;;;;5026242;28;20033;-64
2021/08/26 17:46:51;;;;;;;9.37;3.07;;;;;;;;;;5028089;28;20027;-64
2021/08/26 17:49:17;;;;;;;8.07;2.47;;;;;;;;;;5040456;28;20021;-64
2021/08/26 17:51:44;;;;;;;6.97;1.63;;;;;;;;;;5051150;28;20440;-64
2021/08/26 17:54:11;;;;;;;11.87;2.20;;;;;;;;;;5051549;28;20430;-64
2021/08/26 17:56:38;;;;;;;3.60;1.50;;;;;;;;;;5048608;28;20021;-64
2021/08/26 17:59:05;;;;;;;6.73;1.53;;;;;;;;;;5036180;28;20029;-64
2021/08/26 18:01:31;;;;;;;5.50;1.30;;;;;;;;;;5045168;28;20109;-64
2021/08/26 18:03:58;;;;;;;4.70;1.43;;;;;;;;;;5044537;28;20028;-64
2021/08/26 18:06:25;;;;;;;4.00;1.50;;;;;;;;;;5049279;28;20103;-64
2021/08/26 18:08:52;;;;;;;6.07;1.47;;;;;;;;;;5046479;28;20025;-64
2021/08/26 18:11:18;;;;;;;3.00;1.13;;;;;;;;;;5054144;28;20079;-64
2021/08/26 18:13:45;;;;;;;4.50;1.40;;;;;;;;;;5034861;28;20072;-64
2021/08/26 18:16:12;;;;;;;3.13;1.10;;;;;;;;;;5034661;28;20075;-64
2021/08/26 18:18:39;;;;;;;4.07;1.23;;;;;;;;;;5034931;28;20030;-64
2021/08/26 18:21:06;;;;;;;7.37;1.37;;;;;;;;;;5052074;28;20029;-64
2021/08/26 18:23:33;;;;;;;5.60;0.97;;;;;;;;;;5048843;28;20158;-64
2021/08/26 18:25:59;;;;;;;5.10;1.13;;;;;;;;;;5029986;28;20117;-64
2021/08/26 18:28:26;;;;;;;4.20;0.77;;;;;;;;;;5045874;28;20029;-64
2021/08/26 18:30:53;;;;;;;5.83;1.57;;;;;;;;;;5049245;28;20036;-64
2021/08/26 18:33:20;;;;;;;8.30;2.43;;;;;;;;;;5037443;28;20029;-64
2021/08/26 18:35:47;;;;;;;9.17;2.07;;;;;;;;;;5050255;28;20487;-64
2021/08/26 18:38:13;;;;;;;6.67;2.07;;;;;;;;;;5054497;28;20028;-64
2021/08/26 18:40:40;;;;;;;5.17;1.20;;;;;;;;;;5054234;28;20036;-64
2021/08/26 18:43:07;;;;;;;8.03;1.17;;;;;;;;;;5053414;28;20096;-64
2021/08/26 18:45:34;;;;;;;3.57;1.30;;;;;;;;;;5033768;28;20998;-64
2021/08/26 18:48:01;;;;;;;4.73;1.37;;;;;;;;;;5028912;28;20049;-65
2021/08/26 18:50:27;;;;;;;1.50;0.80;;;;;;;;;;5028366;28;20038;-64
2021/08/26 18:52:54;;;;;;;5.47;0.90;;;;;;;;;;5029765;28;20029;-64
2021/08/26 18:55:21;;;;;;;2.03;0.90;;;;;;;;;;5046021;28;20028;-64
2021/08/26 18:57:48;;;;;;;4.30;0.90;;;;;;;;;;5053879;28;20037;-64
2021/08/26 19:00:17;;;;;;;4.93;1.00;;;;;;;;;;5037745;28;20427;-64
2021/08/26 19:02:44;;;;;;;1.70;0.90;;;;;;;;;;5034902;28;20092;-64
2021/08/26 19:05:11;;;;;;;0.87;0.50;;;;;;;;;;5043943;28;20029;-63
2021/08/26 19:07:39;;;;;;;2.07;0.70;;;;;;;;;;5048110;28;20035;-64
2021/08/26 19:10:06;;;;;;;1.47;0.53;;;;;;;;;;5046720;28;20029;-65
2021/08/26 19:12:32;;;;;;;3.80;1.23;;;;;;;;;;5047671;28;20048;-63
2021/08/26 19:15:00;;;;;;;6.50;2.23;;;;;;;;;;5048074;28;20048;-64
2021/08/26 19:17:27;;;;;;;6.67;1.93;;;;;;;;;;5052234;28;20116;-64
2021/08/26 19:19:55;;;;;;;5.70;1.00;;;;;;;;;;5051777;28;20072;-64
2021/08/26 19:22:21;;;;;;;4.07;1.20;;;;;;;;;;5036190;28;20030;-64
2021/08/26 19:24:48;;;;;;;7.37;1.87;;;;;;;;;;5036599;28;20037;-64
2021/08/26 19:27:15;;;;;;;8.23;1.83;;;;;;;;;;5053189;28;20024;-64
2021/08/26 19:29:42;;;;;;;6.07;2.27;;;;;;;;;;5048299;28;20021;-64
2021/08/26 19:32:09;;;;;;;6.43;2.17;;;;;;;;;;5032066;28;20026;-65
2021/08/26 19:34:36;;;;;;;11.10;3.10;;;;;;;;;;5028295;28;20425;-65
2021/08/26 19:37:02;;;;;;;8.87;2.97;;;;;;;;;;5041446;28;20021;-65
2021/08/26 19:39:29;;;;;;;7.70;2.40;;;;;;;;;;5032034;28;20013;-65
2021/08/26 19:41:56;;;;;;;6.63;2.80;;;;;;;;;;5033428;28;20172;-65
2021/08/26 19:44:23;;;;;;;10.53;3.10;;;;;;;;;;5033341;28;20029;-65
2021/08/26 19:46:49;;;;;;;9.80;4.03;;;;;;;;;;5042664;28;20029;-64
2021/08/26 19:49:17;;;;;;;11.00;3.80;;;;;;;;;;5053168;28;20021;-65
2021/08/26 19:51:44;;;;;;;11.87;3.20;;;;;;;;;;5048718;28;20025;-64
2021/08/26 19:54:11;;;;;;;8.63;3.33;;;;;;;;;;5047212;28;20124;-64
2021/08/26 19:56:38;;;;;;;6.67;2.93;;;;;;;;;;5047270;28;20056;-64
2021/08/26 19:59:05;;;;;;;12.43;3.13;;;;;;;;;;5027623;28;20088;-64
2021/08/26 20:01:31;;;;;;;7.50;2.83;;;;;;;;;;5032468;28;20025;-64
2021/08/26 20:04:00;;;;;;;12.43;4.40;;;;;;;;;;5053101;28;20464;-64
2021/08/26 20:06:27;;;;;;;12.00;4.23;;;;;;;;;;5052498;28;20033;-64
2021/08/26 20:08:54;;;;;;;10.90;4.10;;;;;;;;;;5034961;28;20033;-64
2021/08/26 20:11:20;;;;;;;14.23;3.60;;;;;;;;;;5032191;28;20054;-65
2021/08/26 20:13:47;;;;;;;7.97;2.73;;;;;;;;;;5029229;28;20083;-64
2021/08/26 20:16:15;;;;;;;9.20;2.63;;;;;;;;;;5027416;28;20025;-65
2021/08/26 20:18:41;;;;;;;7.87;3.17;;;;;;;;;;5042350;28;20028;-65
2021/08/26 20:21:09;;;;;;;9.10;3.43;;;;;;;;;;5046990;28;20110;-65
2021/08/26 20:23:36;;;;;;;6.40;2.43;;;;;;;;;;5049963;28;20024;-65
2021/08/26 20:26:02;;;;;;;10.13;2.90;;;;;;;;;;5052500;28;20033;-65
2021/08/26 20:28:29;;;;;;;7.63;3.47;;;;;;;;;;5049243;28;20502;-66
2021/08/26 20:30:56;;;;;;;11.67;2.80;;;;;;;;;;5052653;28;20025;-65
2021/08/26 20:33:23;;;;;;;9.33;2.70;;;;;;;;;;5046627;28;20053;-64
2021/08/26 20:35:50;;;;;;;8.23;3.13;;;;;;;;;;5029777;28;20030;-65
2021/08/26 20:38:16;;;;;;;9.77;2.70;;;;;;;;;;5038615;28;20029;-65
2021/08/26 20:40:43;;;;;;;13.50;2.97;;;;;;;;;;5031423;28;20080;-65
2021/08/26 20:43:10;;;;;;;11.83;2.67;;;;;;;;;;5026977;28;20024;-65
2021/08/26 20:45:37;;;;;;;9.67;2.90;;;;;;;;;;5028165;28;20080;-65
2021/08/26 20:48:03;;;;;;;8.17;2.33;;;;;;;;;;5040585;28;20069;-65
2021/08/26 20:50:30;;;;;;;6.43;2.17;;;;;;;;;;5032444;28;20036;-64
2021/08/26 20:52:57;;;;;;;4.03;1.80;;;;;;;;;;5032065;28;20037;-65
2021/08/26 20:55:24;;;;;;;6.77;2.33;;;;;;;;;;5032276;28;20024;-65
2021/08/26 20:57:51;;;;;;;8.37;2.37;;;;;;;;;;5037517;28;20029;-65
2021/08/26 21:00:18;;;;;;;6.03;2.67;;;;;;;;;;5046530;28;20048;-64
2021/08/26 21:02:44;;;;;;;7.67;2.67;;;;;;;;;;5045527;28;20025;-65
2021/08/26 21:05:13;;;;;;;13.47;3.00;;;;;;;;;;5035881;28;20038;-66
2021/08/26 21:07:40;;;;;;;6.20;2.77;;;;;;;;;;5033739;28;20036;-65
2021/08/26 21:10:09;;;;;;;14.20;3.40;;;;;;;;;;5052005;28;20025;-65
2021/08/26 21:12:35;;;;;;;14.60;2.93;;;;;;;;;;5039889;28;20026;-64
2021/08/26 21:15:02;;;;;;;8.90;2.53;;;;;;;;;;5032045;28;20464;-65
2021/08/26 21:17:29;;;;;;;20.40;2.50;;;;;;;;;;5035551;28;20028;-65
2021/08/26 21:19:56;;;;;;;8.40;2.77;;;;;;;;;;5049534;28;20029;-65
2021/08/26 21:22:23;;;;;;;14.13;3.67;;;;;;;;;;5041379;28;20047;-65
2021/08/26 21:24:50;;;;;;;8.20;3.17;;;;;;;;;;5046347;28;20526;-65
2021/08/26 21:27:17;;;;;;;9.53;2.67;;;;;;;;;;5045939;28;20380;-65
2021/08/26 21:29:43;;;;;;;8.57;3.43;;;;;;;;;;5046816;28;20397;-65
2021/08/26 21:32:11;;;;;;;8.80;2.97;;;;;;;;;;5036539;28;20430;-65
2021/08/26 21:34:37;;;;;;;12.87;3.40;;;;;;;;;;5031342;28;20079;-65
2021/08/26 21:37:04;;;;;;;7.30;2.70;;;;;;;;;;5040856;28;20037;-65
2021/08/26 21:39:32;;;;;;;11.07;2.97;;;;;;;;;;5052418;28;20025;-65
2021/08/26 21:41:59;;;;;;;6.23;2.53;;;;;;;;;;5041928;28;20017;-64
2021/08/26 21:44:26;;;;;;;10.33;2.83;;;;;;;;;;5048097;28;20025;-64
2021/08/26 21:46:52;;;;;;;7.67;2.63;;;;;;;;;;5030209;28;20112;-65
2021/08/26 21:49:19;;;;;;;8.37;2.73;;;;;;;;;;5030135;28;20036;-64
2021/08/26 21:51:46;;;;;;;9.43;2.23;;;;;;;;;;5041112;28;20349;-65
2021/08/26 21:54:13;;;;;;;8.73;2.37;;;;;;;;;;5036001;28;20060;-65
2021/08/26 21:56:40;;;;;;;7.63;2.90;;;;;;;;;;5035410;28;20104;-66
2021/08/26 21:59:06;;;;;;;6.40;2.23;;;;;;;;;;5035404;28;20030;-65
2021/08/26 22:01:33;;;;;;;9.07;2.60;;;;;;;;;;5036155;28;20029;-65
2021/08/26 22:04:00;;;;;;;14.33;3.17;;;;;;;;;;5035283;28;20052;-65
2021/08/26 22:06:27;;;;;;;12.93;3.50;;;;;;;;;;5030510;28;20037;-65
2021/08/26 22:08:53;;;;;;;19.40;4.30;;;;;;;;;;5040761;28;20061;-67
2021/08/26 22:11:20;;;;;;;15.40;4.43;;;;;;;;;;5037901;28;20029;-65
2021/08/26 22:13:49;;;;;;;21.03;4.33;;;;;;;;;;5049422;28;20029;-65
2021/08/26 22:16:16;;;;;;;12.60;3.60;;;;;;;;;;5054263;28;20078;-66
2021/08/26 22:18:43;;;;;;;17.13;4.87;;;;;;;;;;5053423;28;20138;-65
2021/08/26 22:21:10;;;;;;;17.10;3.27;;;;;;;;;;5054625;28;20052;-65
2021/08/26 22:23:37;;;;;;;13.83;3.70;;;;;;;;;;5045770;28;20044;-65
2021/08/26 22:26:04;;;;;;;21.17;4.10;;;;;;;;;;5054316;28;20040;-65
2021/08/26 22:28:30;;;;;;;17.03;3.90;;;;;;;;;;5049544;28;20387;-65
2021/08/26 22:30:57;;;;;;;11.30;3.97;;;;;;;;;;5049320;28;20071;-65
2021/08/26 22:33:24;;;;;;;19.60;4.47;;;;;;;;;;5047546;28;20372;-65
2021/08/26 22:35:55;;;;;;;13.20;4.40;;;;;;;;;;5048650;28;20072;-64
2021/08/26 22:38:24;;;;;;;15.43;3.27;;;;;;;;;;5034624;28;20045;-65
2021/08/26 22:40:51;;;;;;;14.50;3.63;;;;;;;;;;5017757;28;20472;-65
2021/08/26 22:43:19;;;;;;;16.93;3.10;;;;;;;;;;5034501;28;20112;-65
2021/08/26 22:45:45;;;;;;;19.90;4.07;;;;;;;;;;5043185;28;20041;-65
2021/08/26 22:48:15;;;;;;;18.57;4.27;;;;;;;;;;5054036;28;20379;-64
2021/08/26 22:50:44;;;;;;;13.23;3.87;;;;;;;;;;5049435;28;20762;-65
2021/08/26 22:53:11;;;;;;;18.40;3.77;;;;;;;;;;5032343;28;20029;-65
2021/08/26 22:55:38;;;;;;;11.67;3.70;;;;;;;;;;5038243;28;20116;-65
2021/08/26 22:58:05;;;;;;;18.23;3.47;;;;;;;;;;5048436;28;20029;-64
2021/08/26 23:00:32;;;;;;;11.13;3.40;;;;;;;;;;5052356;28;20025;-64
2021/08/26 23:02:59;;;;;;;19.30;4.10;;;;;;;;;;5039904;28;20029;-65
2021/08/26 23:05:26;;;;;;;20.50;4.30;;;;;;;;;;5034091;28;20056;-64
2021/08/26 23:07:52;;;;;;;17.90;3.70;;;;;;;;;;5033990;28;20039;-65